createdAt,value
2019-04-04T00:00:29.598Z,12.49
2019-04-04T00:01:42.272Z,12.47
2019-04-04T00:02:50.386Z,12.41
2019-04-04T00:03:58.354Z,12.42
2019-04-04T00:05:07.585Z,12.38
2019-04-04T00:06:16.008Z,12.32
2019-04-04T00:07:24.261Z,12.33
2019-04-04T00:08:32.587Z,12.34
2019-04-04T00:09:40.794Z,12.33
2019-04-04T00:10:49.217Z,12.33
2019-04-04T00:11:57.794Z,12.28
2019-04-04T00:13:06.306Z,12.30
2019-04-04T00:14:14.513Z,12.26
2019-04-04T00:15:22.638Z,12.27
2019-04-04T00:16:30.603Z,12.27
2019-04-04T00:17:38.812Z,12.26
2019-04-04T00:18:47.509Z,12.26
2019-04-04T00:19:56.059Z,12.23
2019-04-04T00:21:04.326Z,12.23
2019-04-04T00:22:12.565Z,12.23
2019-04-04T00:23:20.676Z,12.25
2019-04-04T00:24:28.777Z,12.29
2019-04-04T00:25:36.761Z,12.30
2019-04-04T00:26:44.756Z,12.31
2019-04-04T00:27:53.337Z,12.33
2019-04-04T00:29:01.644Z,12.31
2019-04-04T00:30:11.328Z,12.32
2019-04-04T00:31:19.755Z,12.32
2019-04-04T00:32:28.040Z,12.24
2019-04-04T00:33:35.871Z,12.23
2019-04-04T00:34:44.346Z,12.25
2019-04-04T00:35:52.474Z,12.20
2019-04-04T00:37:00.604Z,12.16
2019-04-04T00:38:08.492Z,12.11
2019-04-04T00:39:16.428Z,12.10
2019-04-04T00:40:24.820Z,12.02
2019-04-04T00:41:33.297Z,11.95
2019-04-04T00:42:41.211Z,11.93
2019-04-04T00:43:49.911Z,11.91
2019-04-04T00:44:58.781Z,11.89
2019-04-04T00:46:06.854Z,11.91
2019-04-04T00:47:14.928Z,11.87
2019-04-04T00:48:23.245Z,11.86
2019-04-04T00:49:31.535Z,11.85
2019-04-04T00:50:39.386Z,11.84
2019-04-04T00:51:47.498Z,11.85
2019-04-04T00:52:55.500Z,11.86
2019-04-04T00:54:03.962Z,11.84
2019-04-04T00:55:11.927Z,11.81
2019-04-04T00:56:19.796Z,11.80
2019-04-04T00:57:28.204Z,11.77
2019-04-04T00:58:36.205Z,11.76
2019-04-04T00:59:44.312Z,11.76
2019-04-04T01:00:52.934Z,11.74
2019-04-04T01:02:02.567Z,11.69
2019-04-04T01:03:10.907Z,11.64
2019-04-04T01:04:19.162Z,11.65
2019-04-04T01:05:27.084Z,11.66
2019-04-04T01:06:35.366Z,11.69
2019-04-04T01:07:43.761Z,11.68
2019-04-04T01:08:51.870Z,11.63
2019-04-04T01:10:00.208Z,11.63
2019-04-04T01:11:08.644Z,11.61
2019-04-04T01:12:16.762Z,11.63
2019-04-04T01:13:27.530Z,11.62
2019-04-04T01:14:34.447Z,11.60
2019-04-04T01:15:42.515Z,11.59
2019-04-04T01:16:50.471Z,11.57
2019-04-04T01:17:58.680Z,11.57
2019-04-04T01:19:09.693Z,11.53
2019-04-04T01:20:18.097Z,11.54
2019-04-04T01:21:26.643Z,11.54
2019-04-04T01:22:34.746Z,11.49
2019-04-04T01:23:42.922Z,11.46
2019-04-04T01:24:51.156Z,11.45
2019-04-04T01:25:59.275Z,11.33
2019-04-04T01:27:07.501Z,11.37
2019-04-04T01:28:15.639Z,11.32
2019-04-04T01:29:23.578Z,11.28
2019-04-04T01:30:31.396Z,11.26
2019-04-04T01:31:39.355Z,11.24
2019-04-04T01:32:48.155Z,11.20
2019-04-04T01:33:57.163Z,11.18
2019-04-04T01:35:07.955Z,11.22
2019-04-04T01:36:16.223Z,11.22
2019-04-04T01:37:25.212Z,11.18
2019-04-04T01:38:34.656Z,11.14
2019-04-04T01:39:42.720Z,11.09
2019-04-04T01:40:50.851Z,11.08
2019-04-04T01:41:59.018Z,11.05
2019-04-04T01:43:09.241Z,11.03
2019-04-04T01:44:17.171Z,11.04
2019-04-04T01:45:25.385Z,11.07
2019-04-04T01:46:33.513Z,11.10
2019-04-04T01:47:41.553Z,11.05
2019-04-04T01:48:49.963Z,11.03
2019-04-04T01:49:58.731Z,11.01
2019-04-04T01:51:07.949Z,10.99
2019-04-04T01:52:16.310Z,10.96
2019-04-04T01:53:24.694Z,10.97
2019-04-04T01:54:33.261Z,10.98
2019-04-04T01:55:41.550Z,10.99
2019-04-04T01:56:49.859Z,10.98
2019-04-04T01:57:58.024Z,11.00
2019-04-04T01:59:07.059Z,10.99
2019-04-04T02:00:16.204Z,10.99
2019-04-04T02:01:24.243Z,11.02
2019-04-04T02:02:32.463Z,10.99
2019-04-04T02:03:40.899Z,10.99
2019-04-04T02:04:49.152Z,10.99
2019-04-04T02:05:58.260Z,10.93
2019-04-04T02:07:07.230Z,10.89
2019-04-04T02:08:15.700Z,10.89
2019-04-04T02:09:23.836Z,10.81
2019-04-04T02:10:34.489Z,10.78
2019-04-04T02:11:41.764Z,10.78
2019-04-04T02:12:49.874Z,10.74
2019-04-04T02:13:58.079Z,10.80
2019-04-04T02:15:09.286Z,10.84
2019-04-04T02:16:17.682Z,10.86
2019-04-04T02:17:25.955Z,10.81
2019-04-04T02:18:33.788Z,10.78
2019-04-04T02:19:42.033Z,10.75
2019-04-04T02:20:50.081Z,10.77
2019-04-04T02:21:59.840Z,10.73
2019-04-04T02:23:08.057Z,10.73
2019-04-04T02:24:16.125Z,10.67
2019-04-04T02:25:24.247Z,10.63
2019-04-04T02:26:34.090Z,10.59
2019-04-04T02:27:42.286Z,10.59
2019-04-04T02:28:50.498Z,10.56
2019-04-04T02:29:58.683Z,10.49
2019-04-04T02:31:08.113Z,10.41
2019-04-04T02:32:20.206Z,10.38
2019-04-04T02:33:31.964Z,10.36
2019-04-04T02:34:38.504Z,10.36
2019-04-04T02:35:46.680Z,10.35
2019-04-04T02:36:54.946Z,10.39
2019-04-04T02:38:03.246Z,10.42
2019-04-04T02:39:16.266Z,10.36
2019-04-04T02:40:24.371Z,10.37
2019-04-04T02:41:32.567Z,10.36
2019-04-04T02:42:40.985Z,10.33
2019-04-04T02:43:49.154Z,10.31
2019-04-04T02:44:57.201Z,10.28
2019-04-04T02:46:05.052Z,10.22
2019-04-04T02:47:16.859Z,10.25
2019-04-04T02:48:24.523Z,10.29
2019-04-04T02:49:32.858Z,10.26
2019-04-04T02:50:41.123Z,10.19
2019-04-04T02:51:49.166Z,10.16
2019-04-04T02:52:57.265Z,10.16
2019-04-04T02:54:05.616Z,10.17
2019-04-04T02:55:13.823Z,10.16
2019-04-04T02:56:21.918Z,10.20
2019-04-04T02:57:30.014Z,10.21
2019-04-04T02:58:38.187Z,10.18
2019-04-04T02:59:46.295Z,10.16
2019-04-04T03:00:59.131Z,10.15
2019-04-04T03:02:05.908Z,10.15
2019-04-04T03:03:14.366Z,10.12
2019-04-04T03:04:22.790Z,10.11
2019-04-04T03:05:31.039Z,10.11
2019-04-04T03:06:39.388Z,10.13
2019-04-04T03:07:47.620Z,10.10
2019-04-04T03:08:55.765Z,10.08
2019-04-04T03:10:04.697Z,10.09
2019-04-04T03:11:13.390Z,10.11
2019-04-04T03:12:25.724Z,10.16
2019-04-04T03:13:32.398Z,10.17
2019-04-04T03:14:40.878Z,10.15
2019-04-04T03:15:49.383Z,10.19
2019-04-04T03:16:57.915Z,10.22
2019-04-04T03:18:06.307Z,10.19
2019-04-04T03:19:14.376Z,10.18
2019-04-04T03:20:22.511Z,10.18
2019-04-04T03:21:31.022Z,10.21
2019-04-04T03:22:39.196Z,10.18
2019-04-04T03:23:47.261Z,10.15
2019-04-04T03:24:55.792Z,10.17
2019-04-04T03:26:03.811Z,10.21
2019-04-04T03:27:11.886Z,10.24
2019-04-04T03:28:20.105Z,10.20
2019-04-04T03:29:28.184Z,10.15
2019-04-04T03:30:36.287Z,10.13
2019-04-04T03:31:44.857Z,10.13
2019-04-04T03:32:54.886Z,10.09
2019-04-04T03:34:08.400Z,10.07
2019-04-04T03:35:12.429Z,10.08
2019-04-04T03:36:20.369Z,10.06
2019-04-04T03:37:28.421Z,10.00
2019-04-04T03:38:36.330Z,10.01
2019-04-04T03:39:44.303Z,10.00
2019-04-04T03:40:57.461Z,10.02
2019-04-04T03:42:07.160Z,9.96
2019-04-04T03:43:15.822Z,9.97
2019-04-04T03:44:22.373Z,9.94
2019-04-04T03:45:30.339Z,9.93
2019-04-04T03:46:39.157Z,9.95
2019-04-04T03:47:47.311Z,10.01
2019-04-04T03:48:55.235Z,9.98
2019-04-04T03:50:03.601Z,9.97
2019-04-04T03:51:11.426Z,9.92
2019-04-04T03:52:19.413Z,9.94
2019-04-04T03:53:27.647Z,9.95
2019-04-04T03:54:35.875Z,9.97
2019-04-04T03:55:43.845Z,9.95
2019-04-04T03:56:52.076Z,9.96
2019-04-04T03:58:00.362Z,9.94
2019-04-04T03:59:08.900Z,9.95
2019-04-04T04:00:33.128Z,9.93
2019-04-04T04:01:45.385Z,9.92
2019-04-04T04:02:51.548Z,9.95
2019-04-04T04:03:59.668Z,9.90
2019-04-04T04:05:33.775Z,9.88
2019-04-04T04:06:41.919Z,9.87
2019-04-04T04:07:50.381Z,9.81
2019-04-04T04:08:58.883Z,9.82
2019-04-04T04:10:08.010Z,9.82
2019-04-04T04:11:16.028Z,9.79
2019-04-04T04:12:24.455Z,9.80
2019-04-04T04:13:33.000Z,9.81
2019-04-04T04:14:41.111Z,9.79
2019-04-04T04:15:50.401Z,9.78
2019-04-04T04:16:58.741Z,9.76
2019-04-04T04:18:07.107Z,9.75
2019-04-04T04:19:15.536Z,9.76
2019-04-04T04:20:23.566Z,9.73
2019-04-04T04:21:31.703Z,9.69
2019-04-04T04:22:40.248Z,9.64
2019-04-04T04:23:49.800Z,9.59
2019-04-04T04:25:02.137Z,9.58
2019-04-04T04:26:09.454Z,9.60
2019-04-04T04:27:17.742Z,9.63
2019-04-04T04:28:25.829Z,9.65
2019-04-04T04:29:33.759Z,9.62
2019-04-04T04:30:41.957Z,9.65
2019-04-04T04:31:50.049Z,9.64
2019-04-04T04:32:58.252Z,9.63
2019-04-04T04:34:06.286Z,9.57
2019-04-04T04:35:14.755Z,9.58
2019-04-04T04:36:22.797Z,9.62
2019-04-04T04:37:30.892Z,9.60
2019-04-04T04:38:39.139Z,9.61
2019-04-04T04:39:47.054Z,9.61
2019-04-04T04:40:55.108Z,9.59
2019-04-04T04:42:03.222Z,9.58
2019-04-04T04:43:15.148Z,9.59
2019-04-04T04:44:21.057Z,9.59
2019-04-04T04:45:29.322Z,9.60
2019-04-04T04:46:37.363Z,9.61
2019-04-04T04:47:45.606Z,9.63
2019-04-04T04:48:53.755Z,9.59
2019-04-04T04:50:02.359Z,9.62
2019-04-04T04:51:12.026Z,9.61
2019-04-04T04:52:20.303Z,9.63
2019-04-04T04:53:28.266Z,9.67
2019-04-04T04:54:36.181Z,9.66
2019-04-04T04:55:44.484Z,9.66
2019-04-04T04:56:52.595Z,9.62
2019-04-04T04:58:00.782Z,9.64
2019-04-04T04:59:08.980Z,9.64
2019-04-04T05:00:17.123Z,9.64
2019-04-04T05:01:25.284Z,9.63
2019-04-04T05:02:33.678Z,9.59
2019-04-04T05:03:41.793Z,9.60
2019-04-04T05:04:49.973Z,9.60
2019-04-04T05:05:57.905Z,9.63
2019-04-04T05:07:07.417Z,9.63
2019-04-04T05:08:15.812Z,9.63
2019-04-04T05:09:24.348Z,9.65
2019-04-04T05:10:32.403Z,9.66
2019-04-04T05:11:40.260Z,9.67
2019-04-04T05:12:48.313Z,9.68
2019-04-04T05:13:58.290Z,9.67
2019-04-04T05:15:07.761Z,9.68
2019-04-04T05:16:15.961Z,9.67
2019-04-04T05:17:24.014Z,9.63
2019-04-04T05:18:32.372Z,9.62
2019-04-04T05:19:40.520Z,9.65
2019-04-04T05:20:48.709Z,9.62
2019-04-04T05:21:56.760Z,9.65
2019-04-04T05:23:05.369Z,9.68
2019-04-04T05:24:14.016Z,9.72
2019-04-04T05:25:22.414Z,9.75
2019-04-04T05:26:34.078Z,9.75
2019-04-04T05:27:40.408Z,9.75
2019-04-04T05:28:49.107Z,9.75
2019-04-04T05:29:57.139Z,9.78
2019-04-04T05:31:05.202Z,9.74
2019-04-04T05:32:13.905Z,9.78
2019-04-04T05:33:22.963Z,9.76
2019-04-04T05:34:31.198Z,9.78
2019-04-04T05:35:39.482Z,9.78
2019-04-04T05:36:47.304Z,9.79
2019-04-04T05:37:55.301Z,9.82
2019-04-04T05:39:05.064Z,9.87
2019-04-04T05:40:13.878Z,9.88
2019-04-04T05:41:21.944Z,9.88
2019-04-04T05:42:32.694Z,9.88
2019-04-04T05:43:40.323Z,9.91
2019-04-04T05:44:49.653Z,9.95
2019-04-04T05:45:57.979Z,9.95
2019-04-04T05:47:06.180Z,9.99
2019-04-04T05:48:14.464Z,10.00
2019-04-04T05:49:23.064Z,10.02
2019-04-04T05:50:31.247Z,10.01
2019-04-04T05:51:39.345Z,10.03
2019-04-04T05:52:47.638Z,10.05
2019-04-04T05:53:55.720Z,10.12
2019-04-04T05:55:05.830Z,10.13
2019-04-04T05:56:15.168Z,10.19
2019-04-04T05:57:24.026Z,10.20
2019-04-04T05:58:32.126Z,10.26
2019-04-04T05:59:42.306Z,10.28
2019-04-04T06:00:50.492Z,10.30
2019-04-04T06:01:58.480Z,10.32
2019-04-04T06:03:06.699Z,10.31
2019-04-04T06:04:14.797Z,10.35
2019-04-04T06:05:22.912Z,10.36
2019-04-04T06:06:33.450Z,10.39
2019-04-04T06:07:41.362Z,10.39
2019-04-04T06:08:49.516Z,10.39
2019-04-04T06:09:57.814Z,10.39
2019-04-04T06:11:06.551Z,10.41
2019-04-04T06:12:14.654Z,10.44
2019-04-04T06:13:22.821Z,10.46
2019-04-04T06:14:30.936Z,10.51
2019-04-04T06:15:39.560Z,10.55
2019-04-04T06:16:47.655Z,10.57
2019-04-04T06:17:55.888Z,10.62
2019-04-04T06:19:04.308Z,10.65
2019-04-04T06:20:14.881Z,10.69
2019-04-04T06:21:22.769Z,10.71
2019-04-04T06:22:30.851Z,10.72
2019-04-04T06:23:40.793Z,10.75
2019-04-04T06:24:51.910Z,10.74
2019-04-04T06:25:58.690Z,10.76
2019-04-04T06:27:09.139Z,10.80
2019-04-04T06:28:17.314Z,10.82
2019-04-04T06:29:25.508Z,10.86
2019-04-04T06:30:42.956Z,10.90
2019-04-04T06:31:43.855Z,10.96
2019-04-04T06:32:52.150Z,11.02
2019-04-04T06:34:00.561Z,11.08
2019-04-04T06:35:09.010Z,11.11
2019-04-04T06:36:17.914Z,11.15
2019-04-04T06:37:27.223Z,11.22
2019-04-04T06:38:35.671Z,11.28
2019-04-04T06:39:44.220Z,11.30
2019-04-04T06:40:52.864Z,11.33
2019-04-04T06:42:03.268Z,11.39
2019-04-04T06:43:11.910Z,11.40
2019-04-04T06:44:20.496Z,11.43
2019-04-04T06:45:29.813Z,11.45
2019-04-04T06:46:38.021Z,11.51
2019-04-04T06:47:46.628Z,11.55
2019-04-04T06:48:55.052Z,11.60
2019-04-04T06:50:07.115Z,11.65
2019-04-04T06:51:14.387Z,11.70
2019-04-04T06:52:23.515Z,11.74
2019-04-04T06:53:32.234Z,11.77
2019-04-04T06:54:40.279Z,11.84
2019-04-04T06:55:49.065Z,11.89
2019-04-04T06:56:59.173Z,11.93
2019-04-04T06:58:09.421Z,12.01
2019-04-04T06:59:17.575Z,12.08
2019-04-04T07:00:27.788Z,12.11
2019-04-04T07:01:35.813Z,12.19
2019-04-04T07:02:43.978Z,12.26
2019-04-04T07:03:52.796Z,12.33
2019-04-04T07:05:01.320Z,12.41
2019-04-04T07:06:10.173Z,12.50
2019-04-04T07:07:19.044Z,12.59
2019-04-04T07:08:27.220Z,12.68
2019-04-04T07:09:37.265Z,12.77
2019-04-04T07:10:57.429Z,12.86
2019-04-04T07:11:55.918Z,12.94
2019-04-04T07:13:14.757Z,13.02
2019-04-04T07:14:14.773Z,13.06
2019-04-04T07:15:23.168Z,13.11
2019-04-04T07:16:31.928Z,13.14
2019-04-04T07:17:40.402Z,13.16
2019-04-04T07:18:49.188Z,13.18
2019-04-04T07:19:57.121Z,13.21
2019-04-04T07:21:05.500Z,13.20
2019-04-04T07:22:13.595Z,13.20
2019-04-04T07:23:21.800Z,13.21
2019-04-04T07:24:31.185Z,13.21
2019-04-04T07:25:40.237Z,13.24
2019-04-04T07:26:48.476Z,13.24
2019-04-04T07:27:57.051Z,13.25
2019-04-04T07:29:05.498Z,13.24
2019-04-04T07:30:15.454Z,13.25
2019-04-04T07:31:24.302Z,13.22
2019-04-04T07:32:33.073Z,13.27
2019-04-04T07:33:42.874Z,13.30
2019-04-04T07:34:50.910Z,13.32
2019-04-04T07:35:59.462Z,13.36
2019-04-04T07:37:07.526Z,13.39
2019-04-04T07:38:15.853Z,13.43
2019-04-04T07:39:24.284Z,13.46
2019-04-04T07:40:36.300Z,13.49
2019-04-04T07:41:44.918Z,13.51
2019-04-04T07:42:52.684Z,13.56
2019-04-04T07:44:00.685Z,13.59
2019-04-04T07:45:09.682Z,13.63
2019-04-04T07:46:17.813Z,13.66
2019-04-04T07:47:25.960Z,13.69
2019-04-04T07:48:34.369Z,13.74
2019-04-04T07:49:42.347Z,13.79
2019-04-04T07:50:51.532Z,13.84
2019-04-04T07:52:00.136Z,13.89
2019-04-04T07:53:09.566Z,13.91
2019-04-04T07:54:17.625Z,13.97
2019-04-04T07:55:25.657Z,14.01
2019-04-04T07:56:34.059Z,14.07
2019-04-04T07:57:42.227Z,14.14
2019-04-04T07:58:50.238Z,14.19
2019-04-04T07:59:58.357Z,14.25
2019-04-04T08:01:06.890Z,14.31
2019-04-04T08:02:15.113Z,14.37
2019-04-04T08:03:23.354Z,14.44
2019-04-04T08:04:31.615Z,14.52
2019-04-04T08:05:39.855Z,14.57
2019-04-04T08:06:48.439Z,14.61
2019-04-04T08:07:57.119Z,14.62
2019-04-04T08:09:07.665Z,14.64
2019-04-04T08:10:20.787Z,14.66
2019-04-04T08:11:25.961Z,14.67
2019-04-04T08:12:34.319Z,14.66
2019-04-04T08:13:42.284Z,14.70
2019-04-04T08:14:50.978Z,14.70
2019-04-04T08:15:59.023Z,14.74
2019-04-04T08:17:07.239Z,14.77
2019-04-04T08:18:15.420Z,14.81
2019-04-04T08:19:23.833Z,14.84
2019-04-04T08:20:32.186Z,14.87
2019-04-04T08:21:40.319Z,14.86
2019-04-04T08:22:48.622Z,14.90
2019-04-04T08:23:56.618Z,14.94
2019-04-04T08:25:05.451Z,14.94
2019-04-04T08:26:13.561Z,14.95
2019-04-04T08:27:22.398Z,14.99
2019-04-04T08:28:30.681Z,15.06
2019-04-04T08:29:38.803Z,15.11
2019-04-04T08:30:47.095Z,15.14
2019-04-04T08:31:55.078Z,15.20
2019-04-04T08:33:03.498Z,15.24
2019-04-04T08:34:11.707Z,15.27
2019-04-04T08:35:20.158Z,15.29
2019-04-04T08:36:28.254Z,15.28
2019-04-04T08:37:36.742Z,15.31
2019-04-04T08:38:44.779Z,15.35
2019-04-04T08:39:53.167Z,15.41
2019-04-04T08:41:01.317Z,15.43
2019-04-04T08:42:09.939Z,15.47
2019-04-04T08:43:18.205Z,15.48
2019-04-04T08:44:26.595Z,15.52
2019-04-04T08:45:34.781Z,15.55
2019-04-04T08:46:42.940Z,15.58
2019-04-04T08:47:51.026Z,15.64
2019-04-04T08:48:59.158Z,15.70
2019-04-04T08:50:08.094Z,15.75
2019-04-04T08:51:16.296Z,15.80
2019-04-04T08:52:24.908Z,15.85
2019-04-04T08:53:39.940Z,15.90
2019-04-04T08:54:43.465Z,15.94
2019-04-04T08:55:51.862Z,15.99
2019-04-04T08:57:00.029Z,16.04
2019-04-04T08:58:09.118Z,16.07
2019-04-04T08:59:17.506Z,16.10
2019-04-04T09:00:25.922Z,16.12
2019-04-04T09:01:34.192Z,16.15
2019-04-04T09:02:42.509Z,16.17
2019-04-04T09:03:50.455Z,16.18
2019-04-04T09:05:10.917Z,16.18
2019-04-04T09:06:08.291Z,16.21
2019-04-04T09:07:17.846Z,16.24
2019-04-04T09:08:26.336Z,16.27
2019-04-04T09:09:34.975Z,16.30
2019-04-04T09:10:43.491Z,16.34
2019-04-04T09:11:51.670Z,16.38
2019-04-04T09:12:59.891Z,16.37
2019-04-04T09:14:07.861Z,16.42
2019-04-04T09:15:16.581Z,16.40
2019-04-04T09:16:24.780Z,16.40
2019-04-04T09:17:33.125Z,16.47
2019-04-04T09:18:41.623Z,16.54
2019-04-04T09:19:49.895Z,16.62
2019-04-04T09:20:58.392Z,16.73
2019-04-04T09:22:06.490Z,16.82
2019-04-04T09:23:14.914Z,16.92
2019-04-04T09:24:23.095Z,17.00
2019-04-04T09:25:31.796Z,17.11
2019-04-04T09:26:40.151Z,17.22
2019-04-04T09:27:48.263Z,17.28
2019-04-04T09:28:56.450Z,17.36
2019-04-04T09:30:05.470Z,17.42
2019-04-04T09:31:13.955Z,17.49
2019-04-04T09:32:22.293Z,17.53
2019-04-04T09:33:30.783Z,17.54
2019-04-04T09:34:39.215Z,17.57
2019-04-04T09:35:47.290Z,17.60
2019-04-04T09:36:56.047Z,17.61
2019-04-04T09:38:04.611Z,17.64
2019-04-04T09:39:12.776Z,17.68
2019-04-04T09:40:21.896Z,17.73
2019-04-04T09:41:30.182Z,17.81
2019-04-04T09:42:38.478Z,17.87
2019-04-04T09:43:47.108Z,17.96
2019-04-04T09:44:55.279Z,18.01
2019-04-04T09:46:03.954Z,18.07
2019-04-04T09:47:12.145Z,18.13
2019-04-04T09:48:20.384Z,18.19
2019-04-04T09:49:28.493Z,18.24
2019-04-04T09:50:36.537Z,18.31
2019-04-04T09:51:44.703Z,18.39
2019-04-04T09:52:52.559Z,18.44
2019-04-04T09:54:00.568Z,18.51
2019-04-04T09:55:10.328Z,18.57
2019-04-04T09:56:18.222Z,18.67
2019-04-04T09:57:27.554Z,18.76
2019-04-04T09:58:35.712Z,18.84
2019-04-04T09:59:43.814Z,18.92
2019-04-04T10:00:51.910Z,19.00
2019-04-04T10:02:00.422Z,19.07
2019-04-04T10:03:08.926Z,19.15
2019-04-04T10:04:17.025Z,19.22
2019-04-04T10:05:25.221Z,19.25
2019-04-04T10:06:33.527Z,19.30
2019-04-04T10:07:41.989Z,19.38
2019-04-04T10:08:49.958Z,19.46
2019-04-04T10:09:58.576Z,19.54
2019-04-04T10:11:06.828Z,19.60
2019-04-04T10:12:15.117Z,19.68
2019-04-04T10:13:23.410Z,19.75
2019-04-04T10:14:31.742Z,19.78
2019-04-04T10:15:39.938Z,19.82
2019-04-04T10:16:48.220Z,19.91
2019-04-04T10:17:56.962Z,19.98
2019-04-04T10:19:05.673Z,20.08
2019-04-04T10:20:14.407Z,20.22
2019-04-04T10:21:22.425Z,20.45
2019-04-04T10:22:30.565Z,20.67
2019-04-04T10:23:38.987Z,20.95
2019-04-04T10:24:47.454Z,21.27
2019-04-04T10:25:55.824Z,21.58
2019-04-04T10:27:04.133Z,21.93
2019-04-04T10:28:12.158Z,22.26
2019-04-04T10:29:20.304Z,22.61
2019-04-04T10:30:28.686Z,22.86
2019-04-04T10:31:36.882Z,22.97
2019-04-04T10:32:45.990Z,22.92
2019-04-04T10:33:54.179Z,22.81
2019-04-04T10:35:02.496Z,22.84
2019-04-04T10:36:10.611Z,23.08
2019-04-04T10:37:19.104Z,23.24
2019-04-04T10:38:27.238Z,23.44
2019-04-04T10:39:35.507Z,23.78
2019-04-04T10:40:43.805Z,24.16
2019-04-04T10:41:52.017Z,24.55
2019-04-04T10:43:00.307Z,24.97
2019-04-04T10:44:08.499Z,25.35
2019-04-04T10:45:17.093Z,25.69
2019-04-04T10:46:25.235Z,26.01
2019-04-04T10:47:33.360Z,26.35
2019-04-04T10:48:41.330Z,26.68
2019-04-04T10:49:49.586Z,26.98
2019-04-04T10:50:57.687Z,27.27
2019-04-04T10:52:06.144Z,27.55
2019-04-04T10:53:14.323Z,27.80
2019-04-04T10:54:22.748Z,28.08
2019-04-04T10:55:31.114Z,28.42
2019-04-04T10:56:39.333Z,28.70
2019-04-04T10:57:47.440Z,28.99
2019-04-04T10:58:55.485Z,29.23
2019-04-04T11:00:04.930Z,29.45
2019-04-04T11:01:13.119Z,29.39
2019-04-04T11:02:21.470Z,29.59
2019-04-04T11:03:29.424Z,29.81
2019-04-04T11:04:37.526Z,30.06
2019-04-04T11:05:46.039Z,30.29
2019-04-04T11:06:54.173Z,30.50
2019-04-04T11:08:02.436Z,30.65
2019-04-04T11:09:10.638Z,30.85
2019-04-04T11:10:18.966Z,30.95
2019-04-04T11:11:27.092Z,30.92
2019-04-04T11:12:35.554Z,31.01
2019-04-04T11:13:43.740Z,31.11
2019-04-04T11:14:52.067Z,31.08
2019-04-04T11:16:00.246Z,30.72
2019-04-04T11:17:08.241Z,30.22
2019-04-04T11:18:16.439Z,29.90
2019-04-04T11:19:31.085Z,29.52
2019-04-04T11:20:34.402Z,29.18
2019-04-04T11:21:42.350Z,29.00
2019-04-04T11:22:50.646Z,28.71
2019-04-04T11:23:59.540Z,28.35
2019-04-04T11:25:08.047Z,28.05
2019-04-04T11:26:16.696Z,27.66
2019-04-04T11:27:24.666Z,27.34
2019-04-04T11:28:32.862Z,27.12
2019-04-04T11:29:41.723Z,26.84
2019-04-04T11:30:50.330Z,26.55
2019-04-04T11:31:58.364Z,26.11
2019-04-04T11:33:06.844Z,26.14
2019-04-04T11:34:15.320Z,26.14
2019-04-04T11:35:23.624Z,25.99
2019-04-04T11:36:32.004Z,25.98
2019-04-04T11:37:40.431Z,26.26
2019-04-04T11:38:48.629Z,26.36
2019-04-04T11:39:56.846Z,26.73
2019-04-04T11:41:05.436Z,26.97
2019-04-04T11:42:14.045Z,26.92
2019-04-04T11:43:22.553Z,26.66
2019-04-04T11:44:30.875Z,26.25
2019-04-04T11:45:39.271Z,26.05
2019-04-04T11:46:48.582Z,25.80
2019-04-04T11:47:56.752Z,25.61
2019-04-04T11:49:05.263Z,25.43
2019-04-04T11:50:13.604Z,25.21
2019-04-04T11:51:21.906Z,24.99
2019-04-04T11:52:30.348Z,25.10
2019-04-04T11:53:38.667Z,25.52
2019-04-04T11:54:57.472Z,25.95
2019-04-04T11:56:05.875Z,26.45
2019-04-04T11:57:13.956Z,27.09
2019-04-04T11:58:22.479Z,27.65
2019-04-04T11:59:32.234Z,28.13
2019-04-04T12:00:42.354Z,28.48
2019-04-04T12:01:51.827Z,28.59
2019-04-04T12:02:59.969Z,28.47
2019-04-04T12:04:08.051Z,28.57
2019-04-04T12:05:16.286Z,28.91
2019-04-04T12:06:24.475Z,29.26
2019-04-04T12:07:32.667Z,29.07
2019-04-04T12:08:40.854Z,28.58
2019-04-04T12:09:49.063Z,28.26
2019-04-04T12:10:57.375Z,27.98
2019-04-04T12:12:05.829Z,27.65
2019-04-04T12:13:14.160Z,27.20
2019-04-04T12:14:22.082Z,26.79
2019-04-04T12:15:30.112Z,26.83
2019-04-04T12:16:38.583Z,26.92
2019-04-04T12:17:46.722Z,27.26
2019-04-04T12:18:55.172Z,27.17
2019-04-04T12:20:03.481Z,26.74
2019-04-04T12:21:11.755Z,26.46
2019-04-04T12:22:19.832Z,26.49
2019-04-04T12:23:28.280Z,26.46
2019-04-04T12:24:36.453Z,26.31
2019-04-04T12:25:44.972Z,26.00
2019-04-04T12:26:53.278Z,25.89
2019-04-04T12:28:01.970Z,25.80
2019-04-04T12:29:10.714Z,25.55
2019-04-04T12:30:20.897Z,25.27
2019-04-04T12:31:29.693Z,25.02
2019-04-04T12:32:38.174Z,24.92
2019-04-04T12:33:47.034Z,24.75
2019-04-04T12:34:55.873Z,24.65
2019-04-04T12:36:04.298Z,24.48
2019-04-04T12:37:13.706Z,24.34
2019-04-04T12:38:21.833Z,24.14
2019-04-04T12:39:29.847Z,23.97
2019-04-04T12:40:38.502Z,23.74
2019-04-04T12:41:46.674Z,24.01
2019-04-04T12:42:55.072Z,24.56
2019-04-04T12:44:03.493Z,25.19
2019-04-04T12:45:12.664Z,25.87
2019-04-04T12:46:20.776Z,26.58
2019-04-04T12:47:28.900Z,27.21
2019-04-04T12:48:37.105Z,27.73
2019-04-04T12:49:45.356Z,28.22
2019-04-04T12:50:54.190Z,28.65
2019-04-04T12:52:02.539Z,29.11
2019-04-04T12:53:10.877Z,29.48
2019-04-04T12:54:18.802Z,29.77
2019-04-04T12:55:26.951Z,29.94
2019-04-04T12:56:35.168Z,30.12
2019-04-04T12:57:43.655Z,29.95
2019-04-04T12:58:52.330Z,29.64
2019-04-04T13:00:00.654Z,29.12
2019-04-04T13:01:08.769Z,28.85
2019-04-04T13:02:16.905Z,28.36
2019-04-04T13:03:25.165Z,28.10
2019-04-04T13:04:33.676Z,27.70
2019-04-04T13:05:42.634Z,27.52
2019-04-04T13:06:51.248Z,27.31
2019-04-04T13:07:59.432Z,27.12
2019-04-04T13:09:09.587Z,26.99
2019-04-04T13:10:18.482Z,26.69
2019-04-04T13:11:26.788Z,26.39
2019-04-04T13:12:34.893Z,26.25
2019-04-04T13:13:42.979Z,25.98
2019-04-04T13:14:51.286Z,25.74
2019-04-04T13:15:59.831Z,25.62
2019-04-04T13:17:08.092Z,25.36
2019-04-04T13:18:16.759Z,25.18
2019-04-04T13:19:24.793Z,25.09
2019-04-04T13:20:33.560Z,24.83
2019-04-04T13:21:42.117Z,24.58
2019-04-04T13:22:50.247Z,24.45
2019-04-04T13:23:59.434Z,24.31
2019-04-04T13:25:12.668Z,24.15
2019-04-04T13:26:21.034Z,24.01
2019-04-04T13:27:29.361Z,23.92
2019-04-04T13:28:37.383Z,23.85
2019-04-04T13:29:45.752Z,23.81
2019-04-04T13:30:54.217Z,23.92
2019-04-04T13:32:02.595Z,24.12
2019-04-04T13:33:10.764Z,24.30
2019-04-04T13:34:18.907Z,24.18
2019-04-04T13:35:27.055Z,24.21
2019-04-04T13:36:36.688Z,24.64
2019-04-04T13:37:45.308Z,24.97
2019-04-04T13:38:55.096Z,25.31
2019-04-04T13:40:04.104Z,25.81
2019-04-04T13:41:21.748Z,26.31
2019-04-04T13:42:22.525Z,26.84
2019-04-04T13:43:31.000Z,27.47
2019-04-04T13:44:39.150Z,28.04
2019-04-04T13:45:47.301Z,28.60
2019-04-04T13:46:57.149Z,28.87
2019-04-04T13:48:05.524Z,28.85
2019-04-04T13:49:13.741Z,28.61
2019-04-04T13:50:22.051Z,28.41
2019-04-04T13:51:30.371Z,27.94
2019-04-04T13:52:38.444Z,27.66
2019-04-04T13:53:46.840Z,27.36
2019-04-04T13:54:55.945Z,26.77
2019-04-04T13:56:04.926Z,26.58
2019-04-04T13:57:13.289Z,26.35
2019-04-04T13:58:22.971Z,26.13
2019-04-04T13:59:31.233Z,25.79
2019-04-04T14:00:39.521Z,25.67
2019-04-04T14:01:47.761Z,25.59
2019-04-04T14:02:55.965Z,25.41
2019-04-04T14:04:04.557Z,25.19
2019-04-04T14:05:14.636Z,25.33
2019-04-04T14:06:22.865Z,25.69
2019-04-04T14:07:31.363Z,25.92
2019-04-04T14:08:40.144Z,26.00
2019-04-04T14:09:49.008Z,25.89
2019-04-04T14:10:58.618Z,25.61
2019-04-04T14:12:07.302Z,25.33
2019-04-04T14:13:15.548Z,25.14
2019-04-04T14:14:24.056Z,25.10
2019-04-04T14:15:32.194Z,24.93
2019-04-04T14:16:41.255Z,24.73
2019-04-04T14:17:49.611Z,24.47
2019-04-04T14:18:57.727Z,24.20
2019-04-04T14:20:11.544Z,24.07
2019-04-04T14:21:20.075Z,23.97
2019-04-04T14:22:28.144Z,23.91
2019-04-04T14:23:36.473Z,23.83
2019-04-04T14:24:44.763Z,23.70
2019-04-04T14:25:53.457Z,23.59
2019-04-04T14:27:01.672Z,23.55
2019-04-04T14:28:10.013Z,23.41
2019-04-04T14:29:27.432Z,23.33
2019-04-04T14:30:28.695Z,23.28
2019-04-04T14:31:37.123Z,23.19
2019-04-04T14:32:45.692Z,23.12
2019-04-04T14:33:53.926Z,23.07
2019-04-04T14:35:02.290Z,22.92
2019-04-04T14:36:10.575Z,22.79
2019-04-04T14:37:18.795Z,22.74
2019-04-04T14:38:26.917Z,22.78
2019-04-04T14:39:35.662Z,22.76
2019-04-04T14:40:44.379Z,22.70
2019-04-04T14:41:52.711Z,22.69
2019-04-04T14:43:01.017Z,22.67
2019-04-04T14:44:09.356Z,22.63
2019-04-04T14:45:17.770Z,22.53
2019-04-04T14:46:26.210Z,22.54
2019-04-04T14:47:34.832Z,22.48